Levering, MI (49755)

7:46 PM EDT on June 03, 2015 (GMT -0400)
Creekside, 4 Miles WSW Bliss | | Change Station
CLOSE
Current Station
Personal Weather Station
Location: Bliss Township, MI
Elevation: 708 ft
Nearby Weather Stations

Elev 708 ft 45.65 °N, 84.92 °W | Updated 24 seconds ago

Clear
Clear
67.0 °F
Feels Like 67.0 °F
N
5.0
Wind Variable Wind from North
Gusts 6.0 mph

Today
High -- | Low -- °F
--% Chance of Precip.
Yesterday
High -- | Low -- °F
Precip. -- in
5:52 AM 9:22 PM
Full, 98% visible
Pressure 30.01 in
Visibility 10.0 miles
Clouds Clear
Dew Point 50 °F
Humidity 55%
Rainfall 0.00 in
Snow Depth Not available.
UV 2 out of 12
Pollen 7.90 out of 12
Air Quality Not available.
Flu Activity Sporadic
METAR KPLN 032254Z AUTO 34006KT 10SM CLR 23/10 A3001 RMK AO2 SLP162 T02280100

More Conditions Fewer Conditions

Pressure 30.01 in
Visibility 10.0 miles
Clouds Clear
Dew Point 50 °F
Humidity 55%
Rainfall 0.00 in
Snow Depth Not available.
UV 2 out of 12
Pollen 7.90 out of 12
Air Quality Not available.
Flu Activity Sporadic
METAR KPLN 032254Z AUTO 34006KT 10SM CLR 23/10 A3001 RMK AO2 SLP162 T02280100

More Conditions Fewer Conditions

Nowcast | as of 7:00 PM EDT on June 3, 2015

At 8 PM...mostly clear. Temperature 62. West winds 5 mph. At 10 PM...mostly clear. Temperature 57. Light winds. At 12 am...mostly clear. Temperature 54. Light winds. At 2 am...partly cloudy. Temperature 54. Light winds.

×

10-Day Weather Forecast

×

Almanac

Astronomy

Jun. 03, 2015 Rise Set
Actual Time
Civil Twilight
Nautical Twilight
Astronomical Twilight
Moon
Length of Visible Light
Length of Day
Tomorrow will be .
, % of the Moon is Illuminated

Today's Extremes

State Highs State Lows

Community

WunderPhotos

Upload Photos

1,826,304 photos uploaded!

WunderBlogs® & News

Nearby

Air Quality

  Air Quality AQ Index Pollutant
Not available.

Snow Depth

Station Depth Elevation

Earthquake Activity

City Distance Mag. Time & Date
Minimum magnitude displayed is 2.5.

Coastal Water Temperatures

Place Temperature

Stations

Nearby Weather Stations

Station Location Temp. Windchill Dew Point Humidity Wind Precip. Elev Updated Type